createdAt,value
2022-08-26T00:04:40.059Z,13.77
2022-08-26T00:09:47.361Z,17.33
2022-08-26T00:14:50.472Z,19.77
2022-08-26T00:19:53.839Z,26.70
2022-08-26T00:24:58.155Z,28.60
2022-08-26T00:30:01.626Z,30.83
2022-08-26T00:35:05.116Z,27.93
2022-08-26T00:40:14.275Z,31.43
2022-08-26T00:45:20.043Z,36.90
2022-08-26T00:50:30.502Z,37.67
2022-08-26T00:55:40.309Z,40.70
2022-08-26T01:00:43.011Z,40.27
2022-08-26T01:05:47.975Z,41.20
2022-08-26T01:10:55.742Z,41.43
2022-08-26T01:16:03.575Z,34.53
2022-08-26T01:21:13.312Z,39.30
2022-08-26T01:26:22.331Z,39.80
2022-08-26T01:31:30.804Z,38.00
2022-08-26T01:36:34.184Z,44.67
2022-08-26T01:41:44.144Z,37.03
2022-08-26T01:46:49.801Z,35.50
2022-08-26T01:51:56.006Z,37.87
2022-08-26T01:57:00.823Z,37.23
2022-08-26T02:02:04.857Z,34.63
2022-08-26T02:07:09.824Z,37.63
2022-08-26T02:12:17.612Z,31.70
2022-08-26T02:17:25.973Z,32.27
2022-08-26T02:22:29.587Z,31.60
2022-08-26T02:27:35.776Z,29.70
2022-08-26T02:32:40.175Z,29.40
2022-08-26T02:37:44.705Z,24.63
2022-08-26T02:42:48.809Z,25.90
2022-08-26T02:47:52.904Z,28.20
2022-08-26T02:52:56.231Z,23.63
2022-08-26T02:58:01.157Z,24.50
2022-08-26T03:03:04.205Z,21.23
2022-08-26T03:08:06.950Z,20.60
2022-08-26T03:13:10.980Z,24.10
2022-08-26T03:18:13.762Z,19.83
2022-08-26T03:23:16.380Z,21.77
2022-08-26T03:28:22.587Z,17.73
2022-08-26T03:33:28.375Z,20.40
2022-08-26T03:38:33.125Z,19.47
2022-08-26T03:43:40.215Z,17.70
2022-08-26T03:48:45.744Z,19.60
2022-08-26T03:53:48.645Z,22.50
2022-08-26T03:58:54.142Z,21.50
2022-08-26T04:04:03.192Z,18.83
2022-08-26T04:09:09.267Z,20.57
2022-08-26T04:14:17.590Z,22.80
2022-08-26T04:19:23.876Z,22.00
2022-08-26T04:24:28.301Z,18.60
2022-08-26T04:29:32.531Z,22.00
2022-08-26T04:34:39.628Z,21.07
2022-08-26T04:39:42.378Z,20.80
2022-08-26T04:44:51.792Z,21.43
2022-08-26T04:49:56.523Z,19.07
2022-08-26T04:55:00.614Z,18.23
2022-08-26T05:00:06.420Z,17.60
2022-08-26T05:05:09.950Z,13.07
2022-08-26T05:10:14.243Z,14.13
2022-08-26T05:15:19.640Z,13.70
2022-08-26T05:20:25.732Z,15.13
2022-08-26T05:25:28.986Z,13.53
2022-08-26T05:30:34.277Z,14.80
2022-08-26T05:35:40.713Z,12.97
2022-08-26T05:40:46.405Z,13.23
2022-08-26T05:45:51.843Z,13.50
2022-08-26T05:50:55.082Z,12.60
2022-08-26T05:55:58.133Z,11.30
2022-08-26T06:01:04.706Z,12.47
2022-08-26T06:06:09.657Z,10.73
2022-08-26T06:11:18.600Z,12.30
2022-08-26T06:16:24.737Z,14.13
2022-08-26T06:21:32.290Z,15.30
2022-08-26T06:26:36.683Z,14.63
2022-08-26T06:31:43.169Z,13.43
2022-08-26T06:36:47.295Z,10.63
2022-08-26T06:41:54.292Z,13.03
2022-08-26T06:47:02.419Z,10.83
2022-08-26T06:52:05.544Z,8.70
2022-08-26T06:57:08.723Z,7.70
2022-08-26T07:02:13.410Z,6.90
2022-08-26T07:07:22.843Z,5.83
2022-08-26T07:12:26.385Z,7.33
2022-08-26T07:17:30.817Z,4.97
2022-08-26T07:22:33.904Z,4.23
2022-08-26T07:27:37.947Z,4.50
2022-08-26T07:32:42.281Z,4.07
2022-08-26T07:37:45.528Z,4.60
2022-08-26T07:42:49.116Z,5.10
2022-08-26T07:47:56.128Z,4.00
2022-08-26T07:53:01.828Z,4.97
2022-08-26T07:58:05.496Z,4.77
2022-08-26T08:03:10.618Z,4.70
2022-08-26T08:08:26.825Z,4.40
2022-08-26T08:13:31.879Z,3.73
2022-08-26T08:18:36.098Z,3.50
2022-08-26T08:23:39.581Z,4.23
2022-08-26T08:28:42.437Z,3.73
2022-08-26T08:33:48.521Z,2.93
2022-08-26T08:38:54.350Z,3.80
2022-08-26T08:44:00.211Z,3.43
2022-08-26T08:49:04.397Z,4.03
2022-08-26T08:54:08.736Z,4.03
2022-08-26T08:59:17.176Z,4.10
2022-08-26T09:04:42.731Z,3.20
2022-08-26T09:09:50.656Z,3.83
2022-08-26T09:14:58.193Z,3.50
2022-08-26T09:20:10.961Z,3.57
2022-08-26T09:25:18.069Z,4.30
2022-08-26T09:30:24.783Z,3.30
2022-08-26T09:35:32.105Z,3.10
2022-08-26T09:40:36.423Z,3.23
2022-08-26T09:45:41.386Z,3.50
2022-08-26T09:50:58.763Z,3.67
2022-08-26T09:56:15.502Z,3.47
2022-08-26T10:01:30.199Z,4.13
2022-08-26T10:06:40.057Z,4.00
2022-08-26T10:11:47.909Z,3.90
2022-08-26T10:16:56.301Z,3.27
2022-08-26T10:22:07.469Z,3.10
2022-08-26T10:27:24.636Z,3.07
2022-08-26T10:32:35.091Z,2.90
2022-08-26T10:37:46.440Z,3.60
2022-08-26T10:42:56.064Z,3.23
2022-08-26T10:48:06.144Z,2.73
2022-08-26T10:53:17.527Z,2.63
2022-08-26T10:58:39.299Z,4.20
2022-08-26T11:03:50.291Z,3.73
2022-08-26T11:08:57.733Z,3.07
2022-08-26T11:14:06.869Z,3.00
2022-08-26T11:19:13.251Z,2.40
2022-08-26T11:24:52.711Z,2.00
2022-08-26T11:30:06.800Z,2.00
2022-08-26T11:35:12.445Z,2.30
2022-08-26T11:40:17.858Z,2.33
2022-08-26T11:45:28.510Z,2.43
2022-08-26T11:50:32.412Z,3.20
2022-08-26T11:55:37.432Z,2.20
2022-08-26T12:00:53.192Z,2.40
2022-08-26T12:05:57.179Z,2.70
2022-08-26T12:11:05.174Z,2.13
2022-08-26T12:16:11.401Z,2.70
2022-08-26T12:21:20.243Z,2.27
2022-08-26T12:26:31.014Z,1.93
2022-08-26T12:31:37.928Z,2.40
2022-08-26T12:36:46.664Z,2.40
2022-08-26T12:41:53.767Z,2.30
2022-08-26T12:47:08.136Z,2.00
2022-08-26T12:52:30.763Z,2.27
2022-08-26T12:57:36.054Z,2.10
2022-08-26T13:02:42.422Z,2.03
2022-08-26T13:07:45.624Z,2.40
2022-08-26T13:12:48.394Z,2.40
2022-08-26T13:17:52.896Z,2.30
2022-08-26T13:23:02.793Z,3.40
2022-08-26T13:28:05.426Z,2.30
2022-08-26T13:33:10.046Z,2.40
2022-08-26T13:38:22.308Z,3.03
2022-08-26T13:43:36.991Z,2.37
2022-08-26T13:48:47.013Z,2.50
2022-08-26T13:53:51.017Z,2.27
2022-08-26T13:58:54.701Z,2.80
2022-08-26T14:03:59.017Z,2.07
2022-08-26T14:09:01.745Z,2.00
2022-08-26T14:14:04.469Z,2.30
2022-08-26T14:19:10.848Z,2.10
2022-08-26T14:24:13.613Z,2.00
2022-08-26T14:29:17.032Z,1.70
2022-08-26T14:34:24.552Z,2.07
2022-08-26T14:39:29.567Z,2.07
2022-08-26T14:44:32.821Z,1.80
2022-08-26T14:49:37.300Z,2.00
2022-08-26T14:54:39.993Z,1.80
2022-08-26T14:59:49.624Z,1.93
2022-08-26T15:04:54.571Z,2.03
2022-08-26T15:10:23.643Z,1.97
2022-08-26T15:15:26.797Z,2.40
2022-08-26T15:25:36.275Z,1.70
2022-08-26T15:30:39.677Z,1.80
2022-08-26T15:35:43.960Z,1.57
2022-08-26T15:40:47.253Z,1.87
2022-08-26T15:45:50.522Z,2.10
2022-08-26T15:50:57.012Z,1.80
2022-08-26T15:56:00.818Z,1.80
2022-08-26T16:01:04.453Z,1.43
2022-08-26T16:06:08.804Z,1.73
2022-08-26T16:11:12.790Z,2.13
2022-08-26T16:16:16.042Z,1.80
2022-08-26T16:21:24.575Z,2.00
2022-08-26T16:26:36.343Z,2.23
2022-08-26T16:31:39.723Z,2.10
2022-08-26T16:36:43.967Z,2.57
2022-08-26T16:41:46.676Z,3.33
2022-08-26T16:46:49.923Z,2.00
2022-08-26T16:51:58.544Z,2.10
2022-08-26T16:57:04.225Z,2.00
2022-08-26T17:02:08.447Z,1.30
2022-08-26T17:07:12.555Z,1.93
2022-08-26T17:12:15.865Z,1.40
2022-08-26T17:17:18.876Z,2.00
2022-08-26T17:22:22.923Z,1.83
2022-08-26T17:27:25.838Z,1.90
2022-08-26T17:32:29.047Z,1.93
2022-08-26T17:37:34.630Z,1.50
2022-08-26T17:42:38.113Z,1.40
2022-08-26T17:47:41.211Z,1.20
2022-08-26T17:52:46.662Z,1.30
2022-08-26T17:57:53.819Z,1.50
2022-08-26T18:02:56.984Z,1.53
2022-08-26T18:08:02.162Z,1.87
2022-08-26T18:13:05.451Z,1.77
2022-08-26T18:18:08.203Z,1.57
2022-08-26T18:23:13.256Z,1.80
2022-08-26T18:28:16.002Z,2.50
2022-08-26T18:33:21.497Z,1.50
2022-08-26T18:38:25.722Z,1.80
2022-08-26T18:43:31.319Z,1.70
2022-08-26T18:48:34.467Z,2.33
2022-08-26T18:53:38.535Z,2.07
2022-08-26T18:58:41.453Z,2.20
2022-08-26T19:03:44.387Z,3.03
2022-08-26T19:08:49.776Z,2.40
2022-08-26T19:13:54.153Z,1.80
2022-08-26T19:18:58.276Z,1.90
2022-08-26T19:24:04.731Z,2.00
2022-08-26T19:29:07.669Z,1.70
2022-08-26T19:34:10.837Z,2.30
2022-08-26T19:39:15.682Z,1.97
2022-08-26T19:44:34.915Z,1.77
2022-08-26T19:49:38.411Z,1.50
2022-08-26T19:54:42.482Z,1.40
2022-08-26T19:59:45.839Z,1.60
2022-08-26T20:04:48.607Z,1.53
2022-08-26T20:09:52.723Z,1.87
2022-08-26T20:14:55.918Z,2.03
2022-08-26T20:20:28.504Z,1.80
2022-08-26T20:25:37.903Z,1.87
2022-08-26T20:30:41.081Z,1.87
2022-08-26T20:35:43.950Z,1.43
2022-08-26T20:40:49.123Z,1.60
2022-08-26T20:45:51.780Z,1.83
2022-08-26T20:50:59.118Z,1.77
2022-08-26T20:56:06.396Z,1.70
2022-08-26T21:01:09.824Z,1.23
2022-08-26T21:06:15.207Z,1.90
2022-08-26T21:11:20.477Z,2.03
2022-08-26T21:16:23.162Z,1.70
2022-08-26T21:21:27.347Z,2.13
2022-08-26T21:26:33.896Z,2.30
2022-08-26T21:31:45.416Z,2.33
2022-08-26T21:36:58.576Z,1.60
2022-08-26T21:42:07.342Z,1.90
2022-08-26T21:47:09.990Z,2.63
2022-08-26T21:52:13.457Z,2.17
2022-08-26T21:57:18.293Z,2.20
2022-08-26T22:02:21.595Z,2.60
2022-08-26T22:07:24.391Z,2.10
2022-08-26T22:12:31.064Z,2.33
2022-08-26T22:17:41.069Z,2.40
2022-08-26T22:22:45.013Z,2.03
2022-08-26T22:27:49.083Z,2.20
2022-08-26T22:32:51.861Z,2.30
2022-08-26T22:37:54.597Z,2.10
2022-08-26T22:43:02.321Z,2.07
2022-08-26T22:48:05.711Z,2.60
2022-08-26T22:53:08.590Z,1.50
2022-08-26T22:58:14.401Z,2.43
2022-08-26T23:03:21.078Z,1.77
2022-08-26T23:08:26.697Z,2.17
2022-08-26T23:13:31.420Z,1.80
2022-08-26T23:18:34.221Z,2.40
2022-08-26T23:23:37.979Z,2.43
2022-08-26T23:28:42.298Z,2.10
2022-08-26T23:34:02.903Z,2.70
2022-08-26T23:39:06.915Z,2.50
2022-08-26T23:44:11.526Z,2.60
2022-08-26T23:49:14.405Z,2.40
2022-08-26T23:54:17.302Z,2.47
2022-08-26T23:59:21.657Z,2.80
